sensor_id;sensor_type;location;lat;lon;timestamp;temperature;humidity
8595;DHT22;4335;48.860;9.198;2024-01-10T00:00:56;-3.50;99.90
8595;DHT22;4335;48.860;9.198;2024-01-10T00:03:29;-3.60;99.90
8595;DHT22;4335;48.860;9.198;2024-01-10T00:05:59;-3.50;99.90
8595;DHT22;4335;48.860;9.198;2024-01-10T00:08:26;-3.50;99.90
8595;DHT22;4335;48.860;9.198;2024-01-10T00:10:52;-3.50;99.90
8595;DHT22;4335;48.860;9.198;2024-01-10T00:13:20;-3.50;99.90
8595;DHT22;4335;48.860;9.198;2024-01-10T00:15:47;-3.40;99.90
8595;DHT22;4335;48.860;9.198;2024-01-10T00:18:14;-3.40;99.90
8595;DHT22;4335;48.860;9.198;2024-01-10T00:20:41;-3.50;99.90
8595;DHT22;4335;48.860;9.198;2024-01-10T00:23:08;-3.40;99.90
8595;DHT22;4335;48.860;9.198;2024-01-10T00:25:35;-3.50;99.90
8595;DHT22;4335;48.860;9.198;2024-01-10T00:28:02;-3.30;99.90
8595;DHT22;4335;48.860;9.198;2024-01-10T00:30:29;-3.30;99.90
8595;DHT22;4335;48.860;9.198;2024-01-10T00:32:55;-3.30;99.90
8595;DHT22;4335;48.860;9.198;2024-01-10T00:35:28;-3.40;99.90
8595;DHT22;4335;48.860;9.198;2024-01-10T00:37:55;-3.50;99.90
8595;DHT22;4335;48.860;9.198;2024-01-10T00:40:30;-3.30;99.90
8595;DHT22;4335;48.860;9.198;2024-01-10T00:42:57;-3.30;99.90
8595;DHT22;4335;48.860;9.198;2024-01-10T00:45:24;-3.30;99.90
8595;DHT22;4335;48.860;9.198;2024-01-10T00:47:51;-3.20;99.90
8595;DHT22;4335;48.860;9.198;2024-01-10T00:50:18;-3.20;99.90
8595;DHT22;4335;48.860;9.198;2024-01-10T00:52:45;-3.20;99.90
8595;DHT22;4335;48.860;9.198;2024-01-10T00:55:18;-3.30;99.90
8595;DHT22;4335;48.860;9.198;2024-01-10T00:57:45;-3.30;99.90
8595;DHT22;4335;48.860;9.198;2024-01-10T01:00:13;-3.30;99.90
8595;DHT22;4335;48.860;9.198;2024-01-10T01:02:40;-3.30;99.90
8595;DHT22;4335;48.860;9.198;2024-01-10T01:05:07;-3.30;99.90
8595;DHT22;4335;48.860;9.198;2024-01-10T01:07:34;-3.30;99.90
8595;DHT22;4335;48.860;9.198;2024-01-10T01:10:01;-3.30;99.90
8595;DHT22;4335;48.860;9.198;2024-01-10T01:12:31;-3.30;99.90
8595;DHT22;4335;48.860;9.198;2024-01-10T01:15:06;-3.30;99.90
8595;DHT22;4335;48.860;9.198;2024-01-10T01:17:33;-3.30;99.90
8595;DHT22;4335;48.860;9.198;2024-01-10T01:20:00;-3.30;99.90
8595;DHT22;4335;48.860;9.198;2024-01-10T01:22:30;-3.30;99.90
8595;DHT22;4335;48.860;9.198;2024-01-10T01:25:00;-3.30;99.90
8595;DHT22;4335;48.860;9.198;2024-01-10T01:27:28;-3.30;99.90
8595;DHT22;4335;48.860;9.198;2024-01-10T01:29:55;-3.30;99.90
8595;DHT22;4335;48.860;9.198;2024-01-10T01:32:25;-3.30;99.90
8595;DHT22;4335;48.860;9.198;2024-01-10T01:34:51;-3.30;99.90
8595;DHT22;4335;48.860;9.198;2024-01-10T01:37:18;-3.30;99.90
8595;DHT22;4335;48.860;9.198;2024-01-10T01:39:45;-3.30;99.90
8595;DHT22;4335;48.860;9.198;2024-01-10T01:42:15;-3.30;99.90
8595;DHT22;4335;48.860;9.198;2024-01-10T01:44:42;-3.30;99.90
8595;DHT22;4335;48.860;9.198;2024-01-10T01:47:08;-3.20;99.90
8595;DHT22;4335;48.860;9.198;2024-01-10T01:49:51;-3.20;99.90
8595;DHT22;4335;48.860;9.198;2024-01-10T01:52:19;-3.20;99.90
8595;DHT22;4335;48.860;9.198;2024-01-10T01:54:52;-3.20;99.90
8595;DHT22;4335;48.860;9.198;2024-01-10T01:57:19;-3.20;99.90
8595;DHT22;4335;48.860;9.198;2024-01-10T01:59:46;-3.20;99.90
8595;DHT22;4335;48.860;9.198;2024-01-10T02:02:15;-3.20;99.90
8595;DHT22;4335;48.860;9.198;2024-01-10T02:04:46;-3.20;99.90
8595;DHT22;4335;48.860;9.198;2024-01-10T02:07:15;-3.20;99.90
8595;DHT22;4335;48.860;9.198;2024-01-10T02:09:48;-3.20;99.90
8595;DHT22;4335;48.860;9.198;2024-01-10T02:12:14;-3.20;99.90
8595;DHT22;4335;48.860;9.198;2024-01-10T02:14:48;-3.10;99.90
8595;DHT22;4335;48.860;9.198;2024-01-10T02:17:20;-3.20;99.90
8595;DHT22;4335;48.860;9.198;2024-01-10T02:20:08;-3.20;99.90
8595;DHT22;4335;48.860;9.198;2024-01-10T02:22:35;-3.20;99.90
8595;DHT22;4335;48.860;9.198;2024-01-10T02:25:03;-3.20;99.90
8595;DHT22;4335;48.860;9.198;2024-01-10T02:27:37;-3.30;99.90
8595;DHT22;4335;48.860;9.198;2024-01-10T02:30:06;-3.20;99.90
8595;DHT22;4335;48.860;9.198;2024-01-10T02:32:39;-3.20;99.90
8595;DHT22;4335;48.860;9.198;2024-01-10T02:35:08;-3.30;99.90
8595;DHT22;4335;48.860;9.198;2024-01-10T02:37:43;-3.30;99.90
8595;DHT22;4335;48.860;9.198;2024-01-10T02:40:12;-3.20;99.90
8595;DHT22;4335;48.860;9.198;2024-01-10T02:42:39;-3.30;99.90
8595;DHT22;4335;48.860;9.198;2024-01-10T02:45:07;-3.40;99.90
8595;DHT22;4335;48.860;9.198;2024-01-10T02:47:33;-3.30;99.90
8595;DHT22;4335;48.860;9.198;2024-01-10T02:50:00;-3.40;99.90
8595;DHT22;4335;48.860;9.198;2024-01-10T02:52:30;-3.40;99.90
8595;DHT22;4335;48.860;9.198;2024-01-10T02:54:56;-3.50;99.90
8595;DHT22;4335;48.860;9.198;2024-01-10T02:57:24;-3.50;99.90
8595;DHT22;4335;48.860;9.198;2024-01-10T02:59:58;-3.50;99.90
8595;DHT22;4335;48.860;9.198;2024-01-10T03:02:27;-3.50;99.90
8595;DHT22;4335;48.860;9.198;2024-01-10T03:04:54;-3.60;99.90
8595;DHT22;4335;48.860;9.198;2024-01-10T03:07:20;-3.60;99.90
8595;DHT22;4335;48.860;9.198;2024-01-10T03:09:47;-3.60;99.90
8595;DHT22;4335;48.860;9.198;2024-01-10T03:12:14;-3.60;99.90
8595;DHT22;4335;48.860;9.198;2024-01-10T03:14:41;-3.60;99.90
8595;DHT22;4335;48.860;9.198;2024-01-10T03:24:11;-3.60;99.90
8595;DHT22;4335;48.860;9.198;2024-01-10T03:26:41;-3.60;99.90
8595;DHT22;4335;48.860;9.198;2024-01-10T03:29:08;-3.60;99.90
8595;DHT22;4335;48.860;9.198;2024-01-10T03:31:36;-3.50;99.90
8595;DHT22;4335;48.860;9.198;2024-01-10T03:34:04;-3.50;99.90
8595;DHT22;4335;48.860;9.198;2024-01-10T03:36:30;-3.50;99.90
8595;DHT22;4335;48.860;9.198;2024-01-10T03:39:00;-3.50;99.90
8595;DHT22;4335;48.860;9.198;2024-01-10T03:41:30;-3.50;99.90
8595;DHT22;4335;48.860;9.198;2024-01-10T03:43:59;-3.40;99.90
8595;DHT22;4335;48.860;9.198;2024-01-10T03:46:29;-3.40;99.90
8595;DHT22;4335;48.860;9.198;2024-01-10T03:48:56;-3.40;99.90
8595;DHT22;4335;48.860;9.198;2024-01-10T03:51:29;-3.40;99.90
8595;DHT22;4335;48.860;9.198;2024-01-10T03:53:55;-3.40;99.90
8595;DHT22;4335;48.860;9.198;2024-01-10T03:56:22;-3.50;99.90
8595;DHT22;4335;48.860;9.198;2024-01-10T03:58:52;-3.40;99.90
8595;DHT22;4335;48.860;9.198;2024-01-10T04:01:22;-3.40;99.90
8595;DHT22;4335;48.860;9.198;2024-01-10T04:03:49;-3.40;99.90
8595;DHT22;4335;48.860;9.198;2024-01-10T04:06:20;-3.30;99.90
8595;DHT22;4335;48.860;9.198;2024-01-10T04:08:53;-3.40;99.90
8595;DHT22;4335;48.860;9.198;2024-01-10T04:11:23;-3.40;99.90
8595;DHT22;4335;48.860;9.198;2024-01-10T04:13:59;-3.30;99.90
8595;DHT22;4335;48.860;9.198;2024-01-10T04:16:30;-3.30;99.90
8595;DHT22;4335;48.860;9.198;2024-01-10T04:18:57;-3.30;99.90
8595;DHT22;4335;48.860;9.198;2024-01-10T04:21:24;-3.30;99.90
8595;DHT22;4335;48.860;9.198;2024-01-10T04:23:54;-3.30;99.90
8595;DHT22;4335;48.860;9.198;2024-01-10T04:26:21;-3.30;99.90
8595;DHT22;4335;48.860;9.198;2024-01-10T04:28:50;-3.30;99.90
8595;DHT22;4335;48.860;9.198;2024-01-10T04:31:23;-3.20;99.90
8595;DHT22;4335;48.860;9.198;2024-01-10T04:33:49;-3.30;99.90
8595;DHT22;4335;48.860;9.198;2024-01-10T04:36:18;-3.10;99.90
8595;DHT22;4335;48.860;9.198;2024-01-10T04:38:46;-3.10;99.90
8595;DHT22;4335;48.860;9.198;2024-01-10T04:41:15;-3.10;99.90
8595;DHT22;4335;48.860;9.198;2024-01-10T04:43:42;-3.10;99.90
8595;DHT22;4335;48.860;9.198;2024-01-10T04:46:09;-3.10;99.90
8595;DHT22;4335;48.860;9.198;2024-01-10T04:48:39;-3.10;99.90
8595;DHT22;4335;48.860;9.198;2024-01-10T04:51:08;-3.10;99.90
8595;DHT22;4335;48.860;9.198;2024-01-10T04:53:36;-3.10;99.90
8595;DHT22;4335;48.860;9.198;2024-01-10T04:56:04;-3.10;99.90
8595;DHT22;4335;48.860;9.198;2024-01-10T04:58:31;-3.00;99.90
8595;DHT22;4335;48.860;9.198;2024-01-10T05:01:00;-3.00;99.90
8595;DHT22;4335;48.860;9.198;2024-01-10T05:03:26;-3.00;99.90
8595;DHT22;4335;48.860;9.198;2024-01-10T05:05:53;-3.00;99.90
8595;DHT22;4335;48.860;9.198;2024-01-10T05:08:20;-3.00;99.90
8595;DHT22;4335;48.860;9.198;2024-01-10T05:10:52;-3.00;99.90
8595;DHT22;4335;48.860;9.198;2024-01-10T05:13:38;-3.00;99.90
8595;DHT22;4335;48.860;9.198;2024-01-10T05:16:11;-3.00;99.90
8595;DHT22;4335;48.860;9.198;2024-01-10T05:18:37;-3.00;99.90
8595;DHT22;4335;48.860;9.198;2024-01-10T05:21:06;-3.00;99.90
8595;DHT22;4335;48.860;9.198;2024-01-10T05:23:33;-3.00;99.90
8595;DHT22;4335;48.860;9.198;2024-01-10T05:26:05;-3.00;99.90
8595;DHT22;4335;48.860;9.198;2024-01-10T05:28:33;-3.10;99.90
8595;DHT22;4335;48.860;9.198;2024-01-10T05:31:05;-3.00;99.90
8595;DHT22;4335;48.860;9.198;2024-01-10T05:33:35;-3.10;99.90
8595;DHT22;4335;48.860;9.198;2024-01-10T05:36:01;-3.20;99.90
8595;DHT22;4335;48.860;9.198;2024-01-10T05:38:31;-3.00;99.90
8595;DHT22;4335;48.860;9.198;2024-01-10T05:41:01;-3.10;99.90
8595;DHT22;4335;48.860;9.198;2024-01-10T05:43:34;-3.10;99.90
8595;DHT22;4335;48.860;9.198;2024-01-10T05:46:07;-3.10;99.90
8595;DHT22;4335;48.860;9.198;2024-01-10T05:48:41;-3.10;99.90
8595;DHT22;4335;48.860;9.198;2024-01-10T05:51:08;-3.10;99.90
8595;DHT22;4335;48.860;9.198;2024-01-10T05:53:38;-3.10;99.90
8595;DHT22;4335;48.860;9.198;2024-01-10T05:56:09;-3.10;99.90
8595;DHT22;4335;48.860;9.198;2024-01-10T05:58:37;-3.10;99.90
8595;DHT22;4335;48.860;9.198;2024-01-10T06:01:11;-3.10;99.90
8595;DHT22;4335;48.860;9.198;2024-01-10T06:03:38;-2.90;99.90
8595;DHT22;4335;48.860;9.198;2024-01-10T06:06:12;-2.60;99.90
8595;DHT22;4335;48.860;9.198;2024-01-10T06:08:42;-2.40;99.90
8595;DHT22;4335;48.860;9.198;2024-01-10T06:11:08;-2.30;99.90
8595;DHT22;4335;48.860;9.198;2024-01-10T06:13:36;-2.20;99.90
8595;DHT22;4335;48.860;9.198;2024-01-10T06:16:14;-2.20;99.90
8595;DHT22;4335;48.860;9.198;2024-01-10T06:18:41;-2.00;99.90
8595;DHT22;4335;48.860;9.198;2024-01-10T06:21:12;-2.20;99.90
8595;DHT22;4335;48.860;9.198;2024-01-10T06:23:53;-2.10;99.90
8595;DHT22;4335;48.860;9.198;2024-01-10T06:26:20;-2.10;99.90
8595;DHT22;4335;48.860;9.198;2024-01-10T06:28:48;-2.20;99.90
8595;DHT22;4335;48.860;9.198;2024-01-10T06:31:15;-2.30;99.90
8595;DHT22;4335;48.860;9.198;2024-01-10T06:33:42;-2.30;99.90
8595;DHT22;4335;48.860;9.198;2024-01-10T06:36:15;-2.40;99.90
8595;DHT22;4335;48.860;9.198;2024-01-10T06:38:41;-2.50;99.90
8595;DHT22;4335;48.860;9.198;2024-01-10T06:41:09;-2.60;99.90
8595;DHT22;4335;48.860;9.198;2024-01-10T06:43:42;-2.60;99.90
8595;DHT22;4335;48.860;9.198;2024-01-10T06:46:15;-2.60;99.90
8595;DHT22;4335;48.860;9.198;2024-01-10T06:48:42;-2.80;99.90
8595;DHT22;4335;48.860;9.198;2024-01-10T06:51:14;-2.60;99.90
8595;DHT22;4335;48.860;9.198;2024-01-10T06:53:50;-2.70;99.90
8595;DHT22;4335;48.860;9.198;2024-01-10T06:56:19;-2.70;99.90
8595;DHT22;4335;48.860;9.198;2024-01-10T06:58:45;-2.80;99.90
8595;DHT22;4335;48.860;9.198;2024-01-10T07:01:16;-2.90;99.90
8595;DHT22;4335;48.860;9.198;2024-01-10T07:03:42;-3.00;99.90
8595;DHT22;4335;48.860;9.198;2024-01-10T07:06:11;-3.00;99.90
8595;DHT22;4335;48.860;9.198;2024-01-10T07:08:40;-3.10;99.90
8595;DHT22;4335;48.860;9.198;2024-01-10T07:11:14;-3.10;99.90
8595;DHT22;4335;48.860;9.198;2024-01-10T07:13:41;-3.10;99.90
8595;DHT22;4335;48.860;9.198;2024-01-10T07:16:07;-3.10;99.90
8595;DHT22;4335;48.860;9.198;2024-01-10T07:18:35;-3.10;99.90
8595;DHT22;4335;48.860;9.198;2024-01-10T07:21:02;-3.20;99.90
8595;DHT22;4335;48.860;9.198;2024-01-10T07:23:32;-3.20;99.90
8595;DHT22;4335;48.860;9.198;2024-01-10T07:25:59;-3.30;99.90
8595;DHT22;4335;48.860;9.198;2024-01-10T07:28:29;-3.20;99.90
8595;DHT22;4335;48.860;9.198;2024-01-10T07:30:56;-3.20;99.90
8595;DHT22;4335;48.860;9.198;2024-01-10T07:33:29;-3.20;99.90
8595;DHT22;4335;48.860;9.198;2024-01-10T07:35:57;-3.30;99.90
8595;DHT22;4335;48.860;9.198;2024-01-10T07:38:26;-3.10;99.90
8595;DHT22;4335;48.860;9.198;2024-01-10T07:40:54;-3.20;99.90
8595;DHT22;4335;48.860;9.198;2024-01-10T07:43:21;-3.20;99.90
8595;DHT22;4335;48.860;9.198;2024-01-10T07:45:53;-3.20;99.90
8595;DHT22;4335;48.860;9.198;2024-01-10T07:48:19;-3.20;99.90
8595;DHT22;4335;48.860;9.198;2024-01-10T07:50:52;-3.20;99.90
8595;DHT22;4335;48.860;9.198;2024-01-10T07:53:20;-3.20;99.90
8595;DHT22;4335;48.860;9.198;2024-01-10T07:55:49;-3.20;99.90
8595;DHT22;4335;48.860;9.198;2024-01-10T07:58:17;-3.20;99.90
8595;DHT22;4335;48.860;9.198;2024-01-10T08:00:43;-3.10;99.90
8595;DHT22;4335;48.860;9.198;2024-01-10T08:03:11;-3.00;99.90
8595;DHT22;4335;48.860;9.198;2024-01-10T08:05:41;-3.00;99.90
8595;DHT22;4335;48.860;9.198;2024-01-10T08:08:07;-2.90;99.90
8595;DHT22;4335;48.860;9.198;2024-01-10T08:10:35;-2.90;99.90
8595;DHT22;4335;48.860;9.198;2024-01-10T08:13:08;-2.80;99.90
8595;DHT22;4335;48.860;9.198;2024-01-10T08:15:53;-2.80;99.90
8595;DHT22;4335;48.860;9.198;2024-01-10T08:18:20;-2.70;99.90
8595;DHT22;4335;48.860;9.198;2024-01-10T08:20:50;-2.70;99.90
8595;DHT22;4335;48.860;9.198;2024-01-10T08:23:16;-2.60;99.90
8595;DHT22;4335;48.860;9.198;2024-01-10T08:25:44;-2.60;99.90
8595;DHT22;4335;48.860;9.198;2024-01-10T08:28:17;-2.50;99.90
8595;DHT22;4335;48.860;9.198;2024-01-10T08:30:53;-2.40;99.90
8595;DHT22;4335;48.860;9.198;2024-01-10T08:33:20;-2.30;99.90
8595;DHT22;4335;48.860;9.198;2024-01-10T08:35:52;-2.20;99.90
8595;DHT22;4335;48.860;9.198;2024-01-10T08:38:22;-2.10;99.90
8595;DHT22;4335;48.860;9.198;2024-01-10T08:40:50;-2.10;99.90
8595;DHT22;4335;48.860;9.198;2024-01-10T08:43:20;-2.10;99.90
8595;DHT22;4335;48.860;9.198;2024-01-10T08:45:49;-2.00;99.90
8595;DHT22;4335;48.860;9.198;2024-01-10T08:48:16;-1.90;99.90
8595;DHT22;4335;48.860;9.198;2024-01-10T08:50:44;-1.90;99.90
8595;DHT22;4335;48.860;9.198;2024-01-10T08:53:14;-1.80;99.90
8595;DHT22;4335;48.860;9.198;2024-01-10T08:55:42;-1.80;99.90
8595;DHT22;4335;48.860;9.198;2024-01-10T08:58:17;-1.80;99.90
8595;DHT22;4335;48.860;9.198;2024-01-10T09:00:43;-1.70;99.90
8595;DHT22;4335;48.860;9.198;2024-01-10T09:03:10;-1.70;99.90
8595;DHT22;4335;48.860;9.198;2024-01-10T09:05:40;-1.60;99.90
8595;DHT22;4335;48.860;9.198;2024-01-10T09:08:13;-1.70;99.90
8595;DHT22;4335;48.860;9.198;2024-01-10T09:10:44;-1.70;99.90
8595;DHT22;4335;48.860;9.198;2024-01-10T09:13:11;-1.70;99.90
8595;DHT22;4335;48.860;9.198;2024-01-10T09:15:38;-1.70;99.90
8595;DHT22;4335;48.860;9.198;2024-01-10T09:18:11;-1.80;99.90
8595;DHT22;4335;48.860;9.198;2024-01-10T09:20:40;-1.70;99.90
8595;DHT22;4335;48.860;9.198;2024-01-10T09:23:13;-1.80;99.90
8595;DHT22;4335;48.860;9.198;2024-01-10T09:25:44;-1.70;99.90
8595;DHT22;4335;48.860;9.198;2024-01-10T09:28:11;-1.70;99.90
8595;DHT22;4335;48.860;9.198;2024-01-10T09:30:38;-1.70;99.90
8595;DHT22;4335;48.860;9.198;2024-01-10T09:33:08;-1.80;99.90
8595;DHT22;4335;48.860;9.198;2024-01-10T09:35:38;-1.70;99.90
8595;DHT22;4335;48.860;9.198;2024-01-10T09:38:05;-1.70;99.90
8595;DHT22;4335;48.860;9.198;2024-01-10T09:40:32;-1.70;99.90
8595;DHT22;4335;48.860;9.198;2024-01-10T09:43:01;-1.70;99.90
8595;DHT22;4335;48.860;9.198;2024-01-10T09:45:31;-1.70;99.90
8595;DHT22;4335;48.860;9.198;2024-01-10T09:48:02;-1.70;99.90
8595;DHT22;4335;48.860;9.198;2024-01-10T09:50:29;-1.70;99.90
8595;DHT22;4335;48.860;9.198;2024-01-10T09:53:05;-1.60;99.90
8595;DHT22;4335;48.860;9.198;2024-01-10T09:55:34;-1.60;99.90
8595;DHT22;4335;48.860;9.198;2024-01-10T09:58:02;-1.70;99.90
8595;DHT22;4335;48.860;9.198;2024-01-10T10:00:33;-1.60;99.90
8595;DHT22;4335;48.860;9.198;2024-01-10T10:03:02;-1.60;99.90
8595;DHT22;4335;48.860;9.198;2024-01-10T10:05:33;-1.60;99.90
8595;DHT22;4335;48.860;9.198;2024-01-10T10:08:00;-1.50;99.90
8595;DHT22;4335;48.860;9.198;2024-01-10T10:10:26;-1.40;99.90
8595;DHT22;4335;48.860;9.198;2024-01-10T10:12:53;-1.40;99.90
8595;DHT22;4335;48.860;9.198;2024-01-10T10:15:24;-1.30;99.90
8595;DHT22;4335;48.860;9.198;2024-01-10T10:17:52;-1.20;99.90
8595;DHT22;4335;48.860;9.198;2024-01-10T10:20:22;-1.20;99.90
8595;DHT22;4335;48.860;9.198;2024-01-10T10:23:00;-1.20;99.90
8595;DHT22;4335;48.860;9.198;2024-01-10T10:25:37;-1.20;99.90
8595;DHT22;4335;48.860;9.198;2024-01-10T10:28:08;-1.20;99.90
8595;DHT22;4335;48.860;9.198;2024-01-10T10:30:35;-1.20;99.90
8595;DHT22;4335;48.860;9.198;2024-01-10T10:33:08;-1.10;99.90
8595;DHT22;4335;48.860;9.198;2024-01-10T10:35:36;-1.10;99.90
8595;DHT22;4335;48.860;9.198;2024-01-10T10:38:10;-1.10;99.90
8595;DHT22;4335;48.860;9.198;2024-01-10T10:40:37;-1.10;99.90
8595;DHT22;4335;48.860;9.198;2024-01-10T10:43:12;-1.10;99.90
8595;DHT22;4335;48.860;9.198;2024-01-10T10:45:49;-1.00;99.90
8595;DHT22;4335;48.860;9.198;2024-01-10T10:48:17;-1.00;99.90
8595;DHT22;4335;48.860;9.198;2024-01-10T10:50:54;-0.80;99.90
8595;DHT22;4335;48.860;9.198;2024-01-10T10:53:23;-0.80;99.90
8595;DHT22;4335;48.860;9.198;2024-01-10T10:55:52;-0.80;99.90
8595;DHT22;4335;48.860;9.198;2024-01-10T10:58:20;-0.80;99.90
8595;DHT22;4335;48.860;9.198;2024-01-10T11:00:52;-0.80;99.90
8595;DHT22;4335;48.860;9.198;2024-01-10T11:03:21;-0.80;99.90
8595;DHT22;4335;48.860;9.198;2024-01-10T11:05:54;-0.80;99.90
8595;DHT22;4335;48.860;9.198;2024-01-10T11:08:22;-0.70;99.90
8595;DHT22;4335;48.860;9.198;2024-01-10T11:10:51;-0.70;99.90
8595;DHT22;4335;48.860;9.198;2024-01-10T11:13:32;-0.60;99.90
8595;DHT22;4335;48.860;9.198;2024-01-10T11:16:30;-0.70;99.90
8595;DHT22;4335;48.860;9.198;2024-01-10T11:19:20;-0.60;99.90
8595;DHT22;4335;48.860;9.198;2024-01-10T11:22:00;-0.60;99.90
8595;DHT22;4335;48.860;9.198;2024-01-10T11:24:32;-0.60;99.90
8595;DHT22;4335;48.860;9.198;2024-01-10T11:27:14;-0.60;99.90
8595;DHT22;4335;48.860;9.198;2024-01-10T11:29:41;-0.60;99.90
8595;DHT22;4335;48.860;9.198;2024-01-10T11:32:14;-0.60;99.90
8595;DHT22;4335;48.860;9.198;2024-01-10T11:34:58;-0.60;99.90
8595;DHT22;4335;48.860;9.198;2024-01-10T11:37:38;-0.60;99.90
8595;DHT22;4335;48.860;9.198;2024-01-10T11:40:07;-0.60;99.90
8595;DHT22;4335;48.860;9.198;2024-01-10T11:42:41;-0.70;99.90
8595;DHT22;4335;48.860;9.198;2024-01-10T11:45:08;-0.70;99.90
8595;DHT22;4335;48.860;9.198;2024-01-10T11:47:38;-0.60;99.90
8595;DHT22;4335;48.860;9.198;2024-01-10T11:50:08;-0.60;99.90
8595;DHT22;4335;48.860;9.198;2024-01-10T11:52:37;-0.60;99.90
8595;DHT22;4335;48.860;9.198;2024-01-10T11:55:07;-0.60;99.90
8595;DHT22;4335;48.860;9.198;2024-01-10T11:57:34;-0.50;99.90
8595;DHT22;4335;48.860;9.198;2024-01-10T12:00:01;-0.50;99.90
8595;DHT22;4335;48.860;9.198;2024-01-10T12:02:31;-0.50;99.90
8595;DHT22;4335;48.860;9.198;2024-01-10T12:05:01;-0.40;99.90
8595;DHT22;4335;48.860;9.198;2024-01-10T12:07:27;-0.50;99.90
8595;DHT22;4335;48.860;9.198;2024-01-10T12:09:55;-0.50;99.90
8595;DHT22;4335;48.860;9.198;2024-01-10T12:12:22;-0.50;99.90
8595;DHT22;4335;48.860;9.198;2024-01-10T12:14:50;-0.40;99.90
8595;DHT22;4335;48.860;9.198;2024-01-10T12:17:17;-0.40;99.90
8595;DHT22;4335;48.860;9.198;2024-01-10T12:19:47;-0.40;99.90
8595;DHT22;4335;48.860;9.198;2024-01-10T12:22:16;-0.30;99.90
8595;DHT22;4335;48.860;9.198;2024-01-10T12:24:44;-0.40;99.90
8595;DHT22;4335;48.860;9.198;2024-01-10T12:27:12;-0.40;99.90
8595;DHT22;4335;48.860;9.198;2024-01-10T12:29:40;-0.40;99.90
8595;DHT22;4335;48.860;9.198;2024-01-10T12:32:08;-0.30;99.90
8595;DHT22;4335;48.860;9.198;2024-01-10T12:34:38;-0.40;99.90
8595;DHT22;4335;48.860;9.198;2024-01-10T12:37:11;-0.40;99.90
8595;DHT22;4335;48.860;9.198;2024-01-10T12:39:40;-0.30;99.90
8595;DHT22;4335;48.860;9.198;2024-01-10T12:42:11;-0.30;99.90
8595;DHT22;4335;48.860;9.198;2024-01-10T12:44:37;-0.30;99.90
8595;DHT22;4335;48.860;9.198;2024-01-10T12:47:04;-0.30;99.90
8595;DHT22;4335;48.860;9.198;2024-01-10T12:49:31;-0.30;99.90
8595;DHT22;4335;48.860;9.198;2024-01-10T12:51:58;-0.20;99.90
8595;DHT22;4335;48.860;9.198;2024-01-10T12:54:30;-0.20;99.90
8595;DHT22;4335;48.860;9.198;2024-01-10T12:56:57;-0.20;99.90
8595;DHT22;4335;48.860;9.198;2024-01-10T12:59:33;-0.10;99.90
8595;DHT22;4335;48.860;9.198;2024-01-10T13:02:00;-0.10;99.90
8595;DHT22;4335;48.860;9.198;2024-01-10T13:04:33;-0.10;99.90
8595;DHT22;4335;48.860;9.198;2024-01-10T13:06:59;0.00;99.90
8595;DHT22;4335;48.860;9.198;2024-01-10T13:09:29;0.00;99.90
8595;DHT22;4335;48.860;9.198;2024-01-10T13:11:56;0.00;99.90
8595;DHT22;4335;48.860;9.198;2024-01-10T13:14:25;-0.10;99.90
8595;DHT22;4335;48.860;9.198;2024-01-10T13:16:52;0.00;99.90
8595;DHT22;4335;48.860;9.198;2024-01-10T13:19:19;0.00;99.90
8595;DHT22;4335;48.860;9.198;2024-01-10T13:21:46;0.00;99.90
8595;DHT22;4335;48.860;9.198;2024-01-10T13:24:13;0.00;99.90
8595;DHT22;4335;48.860;9.198;2024-01-10T13:26:46;0.10;99.90
8595;DHT22;4335;48.860;9.198;2024-01-10T13:29:14;0.00;99.90
8595;DHT22;4335;48.860;9.198;2024-01-10T13:31:41;0.10;99.90
8595;DHT22;4335;48.860;9.198;2024-01-10T13:34:08;0.10;99.90
8595;DHT22;4335;48.860;9.198;2024-01-10T13:36:36;0.10;99.90
8595;DHT22;4335;48.860;9.198;2024-01-10T13:39:03;0.20;99.90
8595;DHT22;4335;48.860;9.198;2024-01-10T13:41:33;0.20;99.90
8595;DHT22;4335;48.860;9.198;2024-01-10T13:44:00;0.20;99.90
8595;DHT22;4335;48.860;9.198;2024-01-10T13:46:26;0.20;99.90
8595;DHT22;4335;48.860;9.198;2024-01-10T13:48:54;0.20;99.90
8595;DHT22;4335;48.860;9.198;2024-01-10T13:51:20;0.20;99.90
8595;DHT22;4335;48.860;9.198;2024-01-10T13:53:47;0.30;99.90
8595;DHT22;4335;48.860;9.198;2024-01-10T13:56:17;0.30;99.90
8595;DHT22;4335;48.860;9.198;2024-01-10T13:58:43;0.30;99.90
8595;DHT22;4335;48.860;9.198;2024-01-10T14:01:10;0.30;99.90
8595;DHT22;4335;48.860;9.198;2024-01-10T14:03:40;0.30;99.90
8595;DHT22;4335;48.860;9.198;2024-01-10T14:06:13;0.30;99.90
8595;DHT22;4335;48.860;9.198;2024-01-10T14:08:42;0.30;99.90
8595;DHT22;4335;48.860;9.198;2024-01-10T14:11:15;0.40;99.90
8595;DHT22;4335;48.860;9.198;2024-01-10T14:13:41;0.40;99.90
8595;DHT22;4335;48.860;9.198;2024-01-10T14:16:08;0.40;99.90
8595;DHT22;4335;48.860;9.198;2024-01-10T14:18:42;0.40;99.90
8595;DHT22;4335;48.860;9.198;2024-01-10T14:21:09;0.40;99.90
8595;DHT22;4335;48.860;9.198;2024-01-10T14:23:40;0.40;99.90
8595;DHT22;4335;48.860;9.198;2024-01-10T14:26:08;0.40;99.90
8595;DHT22;4335;48.860;9.198;2024-01-10T14:28:41;0.30;99.90
8595;DHT22;4335;48.860;9.198;2024-01-10T14:31:11;0.40;99.90
8595;DHT22;4335;48.860;9.198;2024-01-10T14:33:39;0.40;99.90
8595;DHT22;4335;48.860;9.198;2024-01-10T14:36:09;0.30;99.90
8595;DHT22;4335;48.860;9.198;2024-01-10T14:38:36;0.30;99.90
8595;DHT22;4335;48.860;9.198;2024-01-10T14:41:08;0.30;99.90
8595;DHT22;4335;48.860;9.198;2024-01-10T14:43:36;0.30;99.90
8595;DHT22;4335;48.860;9.198;2024-01-10T14:46:09;0.30;99.90
8595;DHT22;4335;48.860;9.198;2024-01-10T14:48:43;0.30;99.90
8595;DHT22;4335;48.860;9.198;2024-01-10T14:51:13;0.30;99.90
8595;DHT22;4335;48.860;9.198;2024-01-10T14:53:40;0.20;99.90
8595;DHT22;4335;48.860;9.198;2024-01-10T14:56:08;0.20;99.90
8595;DHT22;4335;48.860;9.198;2024-01-10T14:58:34;0.20;99.90
8595;DHT22;4335;48.860;9.198;2024-01-10T15:01:01;0.20;99.90
8595;DHT22;4335;48.860;9.198;2024-01-10T15:03:34;0.20;99.90
8595;DHT22;4335;48.860;9.198;2024-01-10T15:06:00;0.20;99.90
8595;DHT22;4335;48.860;9.198;2024-01-10T15:08:29;0.20;99.90
8595;DHT22;4335;48.860;9.198;2024-01-10T15:10:56;0.20;99.90
8595;DHT22;4335;48.860;9.198;2024-01-10T15:13:23;0.10;99.90
8595;DHT22;4335;48.860;9.198;2024-01-10T15:15:50;0.10;99.90
8595;DHT22;4335;48.860;9.198;2024-01-10T15:18:20;0.10;99.90
8595;DHT22;4335;48.860;9.198;2024-01-10T15:20:47;0.10;99.90
8595;DHT22;4335;48.860;9.198;2024-01-10T15:23:16;0.00;99.90
8595;DHT22;4335;48.860;9.198;2024-01-10T15:25:49;0.00;99.90
8595;DHT22;4335;48.860;9.198;2024-01-10T15:28:16;0.00;99.90
8595;DHT22;4335;48.860;9.198;2024-01-10T15:30:44;0.00;99.90
8595;DHT22;4335;48.860;9.198;2024-01-10T15:33:16;0.00;99.90
8595;DHT22;4335;48.860;9.198;2024-01-10T15:35:43;0.00;99.90
8595;DHT22;4335;48.860;9.198;2024-01-10T15:38:13;0.00;99.90
8595;DHT22;4335;48.860;9.198;2024-01-10T15:40:43;0.00;99.90
8595;DHT22;4335;48.860;9.198;2024-01-10T15:43:14;0.00;99.90
8595;DHT22;4335;48.860;9.198;2024-01-10T15:45:47;-0.10;99.90
8595;DHT22;4335;48.860;9.198;2024-01-10T15:48:17;-0.10;99.90
8595;DHT22;4335;48.860;9.198;2024-01-10T15:50:44;-0.10;99.90
8595;DHT22;4335;48.860;9.198;2024-01-10T15:53:13;-0.20;99.90
8595;DHT22;4335;48.860;9.198;2024-01-10T15:55:42;-0.20;99.90
8595;DHT22;4335;48.860;9.198;2024-01-10T15:58:09;-0.20;99.90
8595;DHT22;4335;48.860;9.198;2024-01-10T16:00:38;-0.20;99.90
8595;DHT22;4335;48.860;9.198;2024-01-10T16:03:06;-0.20;99.90
8595;DHT22;4335;48.860;9.198;2024-01-10T16:05:32;-0.30;99.90
8595;DHT22;4335;48.860;9.198;2024-01-10T16:08:08;-0.30;99.90
8595;DHT22;4335;48.860;9.198;2024-01-10T16:10:44;-0.30;99.90
8595;DHT22;4335;48.860;9.198;2024-01-10T16:13:14;-0.30;99.90
8595;DHT22;4335;48.860;9.198;2024-01-10T16:15:44;-0.20;99.90
8595;DHT22;4335;48.860;9.198;2024-01-10T16:18:11;0.00;99.90
8595;DHT22;4335;48.860;9.198;2024-01-10T16:20:42;0.10;99.90
8595;DHT22;4335;48.860;9.198;2024-01-10T16:23:08;0.10;99.90
8595;DHT22;4335;48.860;9.198;2024-01-10T16:25:35;0.30;99.90